Time;durP1;ratioP1;P1;durP2;ratioP2;P2;SDS_P1;SDS_P2;PMS_P1;PMS_P2;Temp;Humidity;BMP_temperature;BMP_pressure;BME280_temperature;BME280_humidity;BME280_pressure;Samples;Min_cycle;Max_cycle;Signal;HPM_P1;HPM_P2
2023/06/05 00:00:28;;;;;;;;;;;17.50;73.70;;;;;;5015169;28;87075;-47
2023/06/05 00:02:53;;;;;;;;;;;17.50;73.70;;;;;;5013365;28;87315;-46
2023/06/05 00:05:19;;;;;;;;;;;17.50;73.70;;;;;;5016891;28;87971;-46
2023/06/05 00:07:45;;;;;;;;;;;17.50;73.70;;;;;;5015540;28;87263;-47
2023/06/05 00:10:11;;;;;;;;;;;17.40;73.60;;;;;;5012561;28;87810;-46
2023/06/05 00:12:37;;;;;;;;;;;17.40;73.70;;;;;;5014777;28;86390;-47
2023/06/05 00:15:04;;;;;;;;;;;17.40;73.60;;;;;;5013731;28;87004;-46
2023/06/05 00:17:30;;;;;;;;;;;17.40;73.60;;;;;;5014925;28;88038;-47
2023/06/05 00:19:58;;;;;;;;;;;17.40;73.60;;;;;;5012646;28;87997;-47
2023/06/05 00:22:25;;;;;;;;;;;17.40;73.60;;;;;;5013036;28;88278;-47
2023/06/05 00:24:50;;;;;;;;;;;17.40;73.70;;;;;;5014987;28;87221;-46
2023/06/05 00:27:16;;;;;;;;;;;17.40;73.70;;;;;;5016402;28;87169;-46
2023/06/05 00:29:41;;;;;;;;;;;17.40;73.60;;;;;;5014193;28;88217;-46
2023/06/05 00:32:07;;;;;;;;;;;17.30;73.50;;;;;;5014311;28;87713;-46
2023/06/05 00:34:32;;;;;;;;;;;17.30;73.50;;;;;;5012497;28;87123;-47
2023/06/05 00:36:58;;;;;;;;;;;17.40;73.60;;;;;;5013980;28;87415;-47
2023/06/05 00:39:24;;;;;;;;;;;17.30;73.50;;;;;;5014554;28;87116;-47
2023/06/05 00:41:49;;;;;;;;;;;17.30;73.60;;;;;;5012429;28;87758;-46
2023/06/05 00:44:17;;;;;;;;;;;17.30;73.50;;;;;;5013236;28;89233;-46
2023/06/05 00:46:43;;;;;;;;;;;17.30;73.70;;;;;;5017483;28;87116;-46
2023/06/05 00:49:09;;;;;;;;;;;17.30;73.60;;;;;;5014600;28;88350;-46
2023/06/05 00:51:35;;;;;;;;;;;17.30;73.50;;;;;;5013062;28;87576;-46
2023/06/05 00:54:01;;;;;;;;;;;17.30;73.50;;;;;;5013167;28;87603;-47
2023/06/05 00:56:27;;;;;;;;;;;17.30;73.50;;;;;;5014687;28;87652;-46
2023/06/05 00:58:53;;;;;;;;;;;17.30;73.50;;;;;;5012764;28;87145;-47
2023/06/05 01:01:20;;;;;;;;;;;17.30;73.50;;;;;;5015590;28;87400;-47
2023/06/05 01:03:47;;;;;;;;;;;17.20;73.50;;;;;;5011684;28;88008;-46
2023/06/05 01:06:13;;;;;;;;;;;17.20;73.40;;;;;;5014557;28;87166;-46
2023/06/05 01:08:39;;;;;;;;;;;17.20;73.40;;;;;;5015531;28;88097;-46
2023/06/05 01:11:16;;;;;;;;;;;17.20;73.50;;;;;;5012116;28;87031;-46
2023/06/05 01:13:46;;;;;;;;;;;17.20;73.50;;;;;;5013448;28;88536;-46
2023/06/05 01:16:12;;;;;;;;;;;17.20;73.40;;;;;;5010551;28;88250;-47
2023/06/05 01:18:40;;;;;;;;;;;17.20;73.40;;;;;;5013985;28;87102;-47
2023/06/05 01:21:15;;;;;;;;;;;17.20;73.40;;;;;;5013905;28;87447;-45
2023/06/05 01:23:44;;;;;;;;;;;17.20;73.50;;;;;;5011865;28;87957;-46
2023/06/05 01:26:12;;;;;;;;;;;17.20;73.40;;;;;;5012782;28;86522;-46
2023/06/05 01:28:38;;;;;;;;;;;17.20;73.40;;;;;;5014385;28;87033;-47
2023/06/05 01:31:08;;;;;;;;;;;17.20;73.50;;;;;;5015329;28;88012;-47
2023/06/05 01:33:41;;;;;;;;;;;17.20;73.40;;;;;;5013742;28;88191;-48
2023/06/05 01:36:11;;;;;;;;;;;17.10;73.40;;;;;;5012198;28;88084;-46
2023/06/05 01:38:38;;;;;;;;;;;17.10;73.40;;;;;;5010969;28;87089;-46
2023/06/05 01:41:04;;;;;;;;;;;17.10;73.40;;;;;;5011611;28;87944;-46
2023/06/05 01:43:30;;;;;;;;;;;17.10;73.40;;;;;;5012203;28;88066;-46
2023/06/05 01:45:58;;;;;;;;;;;17.10;73.40;;;;;;5013313;28;87103;-46
2023/06/05 01:48:30;;;;;;;;;;;17.10;73.50;;;;;;5011693;28;87900;-46
2023/06/05 01:50:57;;;;;;;;;;;17.10;74.10;;;;;;5012174;28;87439;-45
2023/06/05 01:53:23;;;;;;;;;;;17.10;73.50;;;;;;5017024;28;87229;-46
2023/06/05 01:55:49;;;;;;;;;;;17.10;73.40;;;;;;5011519;28;88032;-46
2023/06/05 01:58:15;;;;;;;;;;;17.10;73.50;;;;;;5011453;28;88248;-46
2023/06/05 02:00:42;;;;;;;;;;;17.00;73.40;;;;;;5014138;28;87434;-46
2023/06/05 02:03:07;;;;;;;;;;;17.00;73.40;;;;;;4994270;28;89639;-46
2023/06/05 02:05:33;;;;;;;;;;;17.00;73.50;;;;;;5012310;28;87164;-46
2023/06/05 02:07:58;;;;;;;;;;;17.00;73.50;;;;;;5013854;28;87655;-47
2023/06/05 02:10:24;;;;;;;;;;;17.00;73.40;;;;;;5010867;28;88191;-48
2023/06/05 02:12:50;;;;;;;;;;;17.00;73.40;;;;;;5011936;28;87066;-47
2023/06/05 02:15:16;;;;;;;;;;;17.00;73.40;;;;;;5016826;28;88564;-46
2023/06/05 02:17:45;;;;;;;;;;;17.00;73.40;;;;;;5013554;28;87277;-46
2023/06/05 02:20:15;;;;;;;;;;;16.90;73.40;;;;;;5011911;28;87301;-46
2023/06/05 02:22:40;;;;;;;;;;;16.90;73.40;;;;;;5009399;28;90319;-46
2023/06/05 02:25:06;;;;;;;;;;;16.90;73.50;;;;;;5013213;28;87809;-47
2023/06/05 02:27:32;;;;;;;;;;;16.90;73.50;;;;;;5012108;28;87416;-46
2023/06/05 02:29:57;;;;;;;;;;;16.90;73.50;;;;;;5010829;28;88114;-46
2023/06/05 02:32:26;;;;;;;;;;;16.90;73.50;;;;;;5014414;28;87218;-46
2023/06/05 02:34:52;;;;;;;;;;;16.80;73.50;;;;;;5012081;28;87421;-45
2023/06/05 02:37:18;;;;;;;;;;;16.90;73.50;;;;;;5013627;28;88143;-46
2023/06/05 02:39:44;;;;;;;;;;;16.80;73.50;;;;;;5013582;28;87259;-46
2023/06/05 02:42:12;;;;;;;;;;;16.80;73.50;;;;;;5011217;28;88056;-48
2023/06/05 02:44:37;;;;;;;;;;;16.80;73.50;;;;;;5010799;28;87068;-45
2023/06/05 02:47:03;;;;;;;;;;;16.80;73.40;;;;;;5012030;28;88463;-47
2023/06/05 02:49:29;;;;;;;;;;;16.80;73.40;;;;;;5010967;28;89607;-47
2023/06/05 02:51:55;;;;;;;;;;;16.80;73.40;;;;;;5011332;28;87069;-47
2023/06/05 02:54:21;;;;;;;;;;;16.80;73.40;;;;;;5013250;28;87384;-46
2023/06/05 02:56:47;;;;;;;;;;;16.80;73.50;;;;;;5015914;28;88080;-46
2023/06/05 02:59:12;;;;;;;;;;;16.70;73.50;;;;;;5015304;28;87559;-46
2023/06/05 03:01:43;;;;;;;;;;;16.70;73.40;;;;;;5015724;28;87119;-46
2023/06/05 03:04:09;;;;;;;;;;;16.70;73.50;;;;;;5013514;28;86713;-47
2023/06/05 03:06:35;;;;;;;;;;;16.70;73.50;;;;;;5014187;28;87162;-46
2023/06/05 03:09:01;;;;;;;;;;;16.70;73.50;;;;;;5014881;28;87198;-46
2023/06/05 03:11:26;;;;;;;;;;;16.70;73.50;;;;;;5009714;28;88115;-47
2023/06/05 03:13:52;;;;;;;;;;;16.70;73.50;;;;;;5014878;28;88408;-46
2023/06/05 03:16:18;;;;;;;;;;;16.70;73.50;;;;;;5010335;28;88214;-46
2023/06/05 03:18:45;;;;;;;;;;;16.60;73.50;;;;;;5009604;28;87218;-46
2023/06/05 03:21:11;;;;;;;;;;;16.70;73.50;;;;;;5010913;28;88169;-47
2023/06/05 03:23:37;;;;;;;;;;;16.70;73.50;;;;;;5016024;28;87139;-46
2023/06/05 03:26:02;;;;;;;;;;;16.60;73.40;;;;;;5014271;28;87553;-46
2023/06/05 03:28:30;;;;;;;;;;;16.60;73.50;;;;;;5010867;28;87411;-48
2023/06/05 03:30:55;;;;;;;;;;;16.60;73.40;;;;;;5013628;28;87185;-46
2023/06/05 03:33:21;;;;;;;;;;;16.60;73.40;;;;;;5014933;28;87624;-47
2023/06/05 03:35:46;;;;;;;;;;;16.60;73.50;;;;;;5013606;28;89904;-46
2023/06/05 03:38:12;;;;;;;;;;;16.60;73.40;;;;;;5020708;28;87221;-47
2023/06/05 03:40:40;;;;;;;;;;;16.60;73.40;;;;;;5015609;28;87196;-46
2023/06/05 03:43:06;;;;;;;;;;;16.60;73.40;;;;;;5015565;28;87252;-46
2023/06/05 03:45:33;;;;;;;;;;;16.60;73.40;;;;;;5018429;28;87348;-47
2023/06/05 03:47:59;;;;;;;;;;;16.60;73.30;;;;;;5011610;28;88014;-46
2023/06/05 03:50:33;;;;;;;;;;;16.60;73.40;;;;;;5013548;28;87166;-48
2023/06/05 03:53:05;;;;;;;;;;;16.60;73.40;;;;;;5012406;28;87462;-46
2023/06/05 03:55:52;;;;;;;;;;;16.60;73.40;;;;;;5010133;28;88208;-48
2023/06/05 03:58:19;;;;;;;;;;;16.60;73.30;;;;;;5009332;28;87051;-46
2023/06/05 04:00:45;;;;;;;;;;;16.60;73.40;;;;;;5014575;28;88041;-46
2023/06/05 04:03:11;;;;;;;;;;;16.50;73.40;;;;;;5013457;28;88342;-49
2023/06/05 04:05:38;;;;;;;;;;;16.50;73.40;;;;;;5014373;28;87661;-46
2023/06/05 04:08:04;;;;;;;;;;;16.50;73.40;;;;;;5014984;28;88103;-46
2023/06/05 04:10:29;;;;;;;;;;;16.50;74.00;;;;;;5015746;28;87078;-45
2023/06/05 04:12:55;;;;;;;;;;;16.60;73.30;;;;;;5011153;28;87355;-46
2023/06/05 04:15:21;;;;;;;;;;;16.50;73.30;;;;;;5015572;28;88110;-46
2023/06/05 04:17:47;;;;;;;;;;;16.50;73.30;;;;;;5011740;28;86311;-46
2023/06/05 04:20:15;;;;;;;;;;;16.50;73.40;;;;;;5015655;28;87082;-49
2023/06/05 04:22:47;;;;;;;;;;;16.50;73.30;;;;;;5012673;28;89495;-46
2023/06/05 04:25:13;;;;;;;;;;;16.50;73.40;;;;;;5016150;28;88082;-47
2023/06/05 04:27:39;;;;;;;;;;;16.50;73.50;;;;;;5011283;28;87972;-46
2023/06/05 04:30:05;;;;;;;;;;;16.50;73.40;;;;;;5013785;28;87733;-46
2023/06/05 04:32:34;;;;;;;;;;;16.50;73.50;;;;;;5011768;28;87201;-47
2023/06/05 04:35:00;;;;;;;;;;;16.40;73.50;;;;;;5007351;28;88354;-45
2023/06/05 04:37:25;;;;;;;;;;;16.40;73.50;;;;;;5011531;28;87099;-45
2023/06/05 04:39:51;;;;;;;;;;;16.50;73.50;;;;;;5014240;28;87655;-47
2023/06/05 04:42:17;;;;;;;;;;;16.40;73.30;;;;;;5012051;28;87213;-46
2023/06/05 04:44:43;;;;;;;;;;;16.40;73.40;;;;;;5014403;28;87110;-47
2023/06/05 04:47:09;;;;;;;;;;;16.40;73.40;;;;;;5013974;28;87318;-46
2023/06/05 04:49:35;;;;;;;;;;;16.50;73.40;;;;;;5013529;28;88803;-46
2023/06/05 04:52:00;;;;;;;;;;;16.40;73.40;;;;;;5013015;28;87910;-46
2023/06/05 04:54:26;;;;;;;;;;;16.40;73.50;;;;;;5010326;28;87797;-46
2023/06/05 04:56:52;;;;;;;;;;;16.40;73.40;;;;;;5015043;28;87242;-47
2023/06/05 04:59:18;;;;;;;;;;;16.40;73.40;;;;;;5010442;28;87455;-46
2023/06/05 05:01:44;;;;;;;;;;;16.40;73.50;;;;;;5008113;28;88030;-46
2023/06/05 05:04:11;;;;;;;;;;;16.40;73.50;;;;;;5009682;28;89177;-47
2023/06/05 05:06:37;;;;;;;;;;;16.40;73.40;;;;;;5017354;28;87435;-46
2023/06/05 05:09:03;;;;;;;;;;;16.40;73.50;;;;;;5011174;28;87143;-46
2023/06/05 05:11:29;;;;;;;;;;;16.40;73.50;;;;;;5009636;28;88357;-47
2023/06/05 05:13:54;;;;;;;;;;;16.40;73.50;;;;;;5010024;28;88861;-47
2023/06/05 05:16:20;;;;;;;;;;;16.40;73.50;;;;;;5013155;28;87129;-46
2023/06/05 05:18:46;;;;;;;;;;;16.40;73.50;;;;;;5014896;28;87870;-46
2023/06/05 05:21:11;;;;;;;;;;;16.30;73.60;;;;;;5006329;28;87242;-46
2023/06/05 05:23:37;;;;;;;;;;;16.40;73.60;;;;;;5011727;28;87238;-46
2023/06/05 05:26:03;;;;;;;;;;;16.30;73.60;;;;;;5013076;28;88089;-46
2023/06/05 05:28:29;;;;;;;;;;;16.30;73.60;;;;;;5014963;28;88368;-46
2023/06/05 05:30:58;;;;;;;;;;;16.30;73.60;;;;;;5008894;28;87472;-47
2023/06/05 05:33:24;;;;;;;;;;;16.40;73.70;;;;;;5010714;28;88084;-46
2023/06/05 05:35:50;;;;;;;;;;;16.40;73.70;;;;;;5012364;28;87173;-46
2023/06/05 05:38:16;;;;;;;;;;;16.30;73.70;;;;;;5009727;28;88276;-46
2023/06/05 05:40:41;;;;;;;;;;;16.30;73.60;;;;;;5012805;28;88367;-46
2023/06/05 05:43:07;;;;;;;;;;;16.30;73.70;;;;;;5010462;28;87252;-46
2023/06/05 05:45:32;;;;;;;;;;;16.40;73.60;;;;;;5015116;28;87524;-46
2023/06/05 05:47:58;;;;;;;;;;;16.40;73.70;;;;;;5005518;28;90177;-48
2023/06/05 05:50:23;;;;;;;;;;;16.30;73.60;;;;;;5013967;28;88217;-46
2023/06/05 05:52:51;;;;;;;;;;;16.30;73.70;;;;;;5013808;28;88171;-48
2023/06/05 05:55:17;;;;;;;;;;;16.30;73.70;;;;;;5015690;28;86413;-46
2023/06/05 05:57:42;;;;;;;;;;;16.30;73.70;;;;;;5011764;28;87183;-46
2023/06/05 06:00:12;;;;;;;;;;;16.30;73.70;;;;;;5007715;28;88217;-46
2023/06/05 06:02:40;;;;;;;;;;;16.30;73.60;;;;;;5011094;28;88441;-47
2023/06/05 06:05:06;;;;;;;;;;;16.40;73.60;;;;;;5011462;28;88292;-46
2023/06/05 06:07:31;;;;;;;;;;;16.40;73.50;;;;;;5009400;28;89342;-46
2023/06/05 06:09:58;;;;;;;;;;;16.40;73.40;;;;;;5009208;28;87125;-46
2023/06/05 06:12:24;;;;;;;;;;;16.40;73.50;;;;;;5014454;28;87666;-46
2023/06/05 06:14:50;;;;;;;;;;;16.40;73.70;;;;;;5010179;28;87064;-46
2023/06/05 06:17:15;;;;;;;;;;;16.40;73.70;;;;;;5005919;28;87565;-47
2023/06/05 06:19:42;;;;;;;;;;;16.40;73.70;;;;;;5003550;28;90496;-47
2023/06/05 06:22:11;;;;;;;;;;;16.40;73.70;;;;;;5012288;28;87130;-46
2023/06/05 06:24:40;;;;;;;;;;;16.40;73.80;;;;;;5009806;28;88489;-46
2023/06/05 06:27:06;;;;;;;;;;;16.40;73.80;;;;;;5008046;28;88400;-46
2023/06/05 06:29:32;;;;;;;;;;;16.40;73.80;;;;;;5013758;28;87204;-46
2023/06/05 06:31:57;;;;;;;;;;;16.40;73.70;;;;;;5008879;28;87549;-45
2023/06/05 06:34:24;;;;;;;;;;;16.40;73.80;;;;;;5011842;28;88334;-46
2023/06/05 06:36:50;;;;;;;;;;;16.40;73.80;;;;;;5008906;28;87752;-46
2023/06/05 06:39:16;;;;;;;;;;;16.40;73.70;;;;;;5012884;28;88210;-47
2023/06/05 06:41:41;;;;;;;;;;;16.40;73.80;;;;;;5009181;28;87411;-46
2023/06/05 06:44:07;;;;;;;;;;;16.40;74.00;;;;;;5009710;28;88456;-46
2023/06/05 06:46:33;;;;;;;;;;;16.40;73.80;;;;;;5010376;28;88077;-46
2023/06/05 06:48:58;;;;;;;;;;;16.40;73.90;;;;;;5011515;28;87243;-46
2023/06/05 06:51:24;;;;;;;;;;;16.40;74.50;;;;;;5011417;28;88637;-46
2023/06/05 06:53:50;;;;;;;;;;;16.40;74.00;;;;;;5010642;28;87116;-46
2023/06/05 06:56:17;;;;;;;;;;;16.40;73.70;;;;;;5010639;28;87089;-46
2023/06/05 06:58:43;;;;;;;;;;;16.40;73.80;;;;;;5011188;28;87983;-46
2023/06/05 07:01:10;;;;;;;;;;;16.40;74.00;;;;;;5010403;28;87184;-46
2023/06/05 07:03:35;;;;;;;;;;;16.40;73.70;;;;;;5010592;28;87343;-46
2023/06/05 07:06:01;;;;;;;;;;;16.50;73.90;;;;;;5011196;28;88154;-47
2023/06/05 07:08:27;;;;;;;;;;;16.50;73.90;;;;;;5013575;28;86356;-47
2023/06/05 07:10:56;;;;;;;;;;;16.40;73.70;;;;;;5010480;28;87089;-45
2023/06/05 07:13:22;;;;;;;;;;;16.50;74.00;;;;;;5010582;28;88139;-46
2023/06/05 07:15:48;;;;;;;;;;;16.40;73.90;;;;;;5015093;28;88083;-46
2023/06/05 07:18:13;;;;;;;;;;;16.40;73.80;;;;;;5010554;28;88550;-46
2023/06/05 07:20:39;;;;;;;;;;;16.40;73.80;;;;;;5011463;28;87211;-46
2023/06/05 07:23:05;;;;;;;;;;;16.50;74.00;;;;;;5010649;28;87180;-46
2023/06/05 07:25:32;;;;;;;;;;;16.50;73.90;;;;;;5012390;28;89135;-46
2023/06/05 07:27:59;;;;;;;;;;;16.50;73.70;;;;;;5011154;28;87245;-46
2023/06/05 07:30:25;;;;;;;;;;;16.50;73.70;;;;;;5010455;28;87363;-46
2023/06/05 07:32:51;;;;;;;;;;;16.50;73.70;;;;;;5010762;28;87249;-46
2023/06/05 07:35:16;;;;;;;;;;;16.50;73.80;;;;;;5010739;28;87147;-46
2023/06/05 07:37:42;;;;;;;;;;;16.50;74.00;;;;;;5013517;28;87711;-46
2023/06/05 07:40:08;;;;;;;;;;;16.50;73.90;;;;;;5012132;28;88034;-46
2023/06/05 07:42:34;;;;;;;;;;;16.50;73.90;;;;;;5012102;28;88441;-46
2023/06/05 07:45:00;;;;;;;;;;;16.50;74.00;;;;;;5014297;28;88124;-47
2023/06/05 07:47:26;;;;;;;;;;;16.60;74.00;;;;;;5015687;28;87064;-47
2023/06/05 07:50:03;;;;;;;;;;;16.50;74.00;;;;;;5015552;28;87520;-47
2023/06/05 07:52:30;;;;;;;;;;;16.50;74.90;;;;;;5015433;28;87934;-46
2023/06/05 07:54:56;;;;;;;;;;;16.50;74.80;;;;;;5013230;28;87115;-46
2023/06/05 07:57:23;;;;;;;;;;;16.50;74.90;;;;;;5015229;28;87561;-48
2023/06/05 07:59:49;;;;;;;;;;;16.50;74.60;;;;;;5017862;28;88049;-47
2023/06/05 08:02:15;;;;;;;;;;;16.50;74.60;;;;;;5013036;28;87389;-46
2023/06/05 08:04:41;;;;;;;;;;;16.50;74.60;;;;;;5015271;28;89060;-46
2023/06/05 08:07:06;;;;;;;;;;;16.60;74.50;;;;;;5013657;28;87263;-46
2023/06/05 08:09:33;;;;;;;;;;;16.60;74.70;;;;;;5015747;28;87124;-47
2023/06/05 08:11:59;;;;;;;;;;;16.60;74.40;;;;;;5013259;28;87540;-48
2023/06/05 08:14:25;;;;;;;;;;;16.60;74.70;;;;;;5013337;28;87628;-47
2023/06/05 08:16:51;;;;;;;;;;;16.60;74.90;;;;;;5015776;28;87357;-47
2023/06/05 08:19:17;;;;;;;;;;;16.60;75.10;;;;;;5014392;28;88030;-46
2023/06/05 08:21:42;;;;;;;;;;;16.60;74.90;;;;;;5017648;28;86365;-46
2023/06/05 08:24:08;;;;;;;;;;;16.60;74.90;;;;;;5012550;28;88273;-48
2023/06/05 08:26:33;;;;;;;;;;;16.60;75.10;;;;;;5015480;28;87262;-46
2023/06/05 08:28:59;;;;;;;;;;;16.60;75.30;;;;;;5012721;28;89065;-47
2023/06/05 08:31:25;;;;;;;;;;;16.60;75.30;;;;;;5012930;28;88238;-46
2023/06/05 08:33:51;;;;;;;;;;;16.60;75.10;;;;;;5014451;28;87403;-46
2023/06/05 08:36:17;;;;;;;;;;;16.70;75.20;;;;;;5014942;28;87536;-46
2023/06/05 08:38:43;;;;;;;;;;;16.70;75.40;;;;;;5014043;28;87842;-46
2023/06/05 08:41:10;;;;;;;;;;;16.70;75.60;;;;;;5012150;28;86999;-47
2023/06/05 08:43:39;;;;;;;;;;;16.70;75.70;;;;;;5017490;28;87577;-46
2023/06/05 08:46:05;;;;;;;;;;;16.70;75.60;;;;;;5014721;28;87032;-46
2023/06/05 08:48:32;;;;;;;;;;;16.70;75.70;;;;;;5013841;28;87430;-46
2023/06/05 08:50:58;;;;;;;;;;;16.70;75.60;;;;;;5012490;28;88173;-46
2023/06/05 08:53:25;;;;;;;;;;;16.70;75.70;;;;;;5011730;28;88732;-46
2023/06/05 08:55:53;;;;;;;;;;;16.80;75.80;;;;;;5015079;28;88260;-46
2023/06/05 08:58:18;;;;;;;;;;;16.80;75.70;;;;;;5012362;28;88169;-46
2023/06/05 09:00:44;;;;;;;;;;;16.80;75.70;;;;;;5013214;28;87111;-46
2023/06/05 09:03:12;;;;;;;;;;;16.80;75.70;;;;;;5017316;28;87397;-46
2023/06/05 09:05:38;;;;;;;;;;;16.80;75.70;;;;;;5012067;28;87126;-47
2023/06/05 09:08:03;;;;;;;;;;;16.80;75.50;;;;;;5013748;28;87301;-46
2023/06/05 09:10:30;;;;;;;;;;;16.80;75.60;;;;;;5012289;28;87525;-47
2023/06/05 09:12:55;;;;;;;;;;;16.90;75.70;;;;;;5011433;28;87048;-46
2023/06/05 09:15:22;;;;;;;;;;;16.80;75.60;;;;;;5013316;28;87386;-46
2023/06/05 09:17:48;;;;;;;;;;;16.80;75.60;;;;;;5013405;28;89461;-46
2023/06/05 09:20:23;;;;;;;;;;;16.80;75.50;;;;;;5014196;28;87217;-46
2023/06/05 09:22:49;;;;;;;;;;;16.90;75.60;;;;;;5014146;28;87377;-46
2023/06/05 09:25:15;;;;;;;;;;;16.90;75.60;;;;;;5014568;28;88199;-46
2023/06/05 09:27:41;;;;;;;;;;;16.90;75.90;;;;;;5013963;28;87389;-46
2023/06/05 09:30:07;;;;;;;;;;;16.90;75.70;;;;;;5013300;28;87218;-46
2023/06/05 09:32:32;;;;;;;;;;;17.00;76.10;;;;;;5011631;28;87117;-46
2023/06/05 09:35:00;;;;;;;;;;;16.90;75.70;;;;;;5015296;28;87347;-46
2023/06/05 09:37:36;;;;;;;;;;;16.90;75.90;;;;;;5012250;28;87365;-46
2023/06/05 09:40:04;;;;;;;;;;;16.90;76.30;;;;;;5011679;28;87187;-47
2023/06/05 09:42:34;;;;;;;;;;;16.80;77.20;;;;;;5011672;28;88138;-46
2023/06/05 09:44:59;;;;;;;;;;;16.70;77.40;;;;;;5013951;28;87807;-46
2023/06/05 09:47:25;;;;;;;;;;;16.70;77.90;;;;;;5015031;28;87064;-46
2023/06/05 09:49:51;;;;;;;;;;;16.70;78.10;;;;;;5011236;28;88174;-46
2023/06/05 09:52:16;;;;;;;;;;;16.70;78.30;;;;;;5014197;28;87370;-46
2023/06/05 09:54:44;;;;;;;;;;;16.70;78.30;;;;;;5011747;28;87104;-46
2023/06/05 09:57:11;;;;;;;;;;;16.70;78.30;;;;;;5012089;28;88081;-47
2023/06/05 09:59:49;;;;;;;;;;;16.90;77.40;;;;;;5014536;28;86299;-46
2023/06/05 10:02:17;;;;;;;;;;;16.90;77.20;;;;;;5013229;28;87041;-46
2023/06/05 10:04:47;;;;;;;;;;;17.00;77.10;;;;;;4993913;28;88739;-46
2023/06/05 10:07:13;;;;;;;;;;;17.10;76.90;;;;;;5011651;28;88104;-46
2023/06/05 10:09:40;;;;;;;;;;;17.10;76.60;;;;;;5014067;28;88722;-46
2023/06/05 10:12:08;;;;;;;;;;;17.20;76.60;;;;;;5011261;28;87110;-46
2023/06/05 10:14:40;;;;;;;;;;;17.20;76.70;;;;;;5012221;28;87379;-46
2023/06/05 10:17:05;;;;;;;;;;;17.20;76.70;;;;;;5013095;28;88178;-46
2023/06/05 10:19:32;;;;;;;;;;;17.20;76.50;;;;;;5011896;28;87004;-46
2023/06/05 10:21:57;;;;;;;;;;;17.20;76.40;;;;;;5011032;28;87308;-46
2023/06/05 10:24:26;;;;;;;;;;;17.20;76.80;;;;;;5013635;28;87545;-46
2023/06/05 10:27:10;;;;;;;;;;;17.20;76.70;;;;;;5011703;28;87184;-46
2023/06/05 10:29:38;;;;;;;;;;;17.20;76.70;;;;;;5011608;28;87104;-46
2023/06/05 10:32:07;;;;;;;;;;;17.30;76.60;;;;;;5013679;28;89104;-46
2023/06/05 10:34:40;;;;;;;;;;;17.30;76.50;;;;;;5013341;28;87061;-46
2023/06/05 10:37:06;;;;;;;;;;;17.30;77.10;;;;;;5013529;28;88052;-46
2023/06/05 10:39:33;;;;;;;;;;;17.40;76.60;;;;;;5010809;28;87132;-46
2023/06/05 10:41:59;;;;;;;;;;;17.30;76.40;;;;;;5012699;28;87389;-46
2023/06/05 10:44:43;;;;;;;;;;;17.40;76.40;;;;;;5012137;28;87952;-47
2023/06/05 10:47:28;;;;;;;;;;;17.40;76.30;;;;;;5012294;28;87083;-46
2023/06/05 10:50:27;;;;;;;;;;;17.40;76.30;;;;;;5012331;28;87745;-46
2023/06/05 10:52:53;;;;;;;;;;;17.40;76.40;;;;;;4997574;28;88115;-47
2023/06/05 10:55:20;;;;;;;;;;;17.40;76.40;;;;;;5015090;28;87092;-46
2023/06/05 10:58:01;;;;;;;;;;;17.40;76.40;;;;;;5011625;28;89004;-47
2023/06/05 11:00:27;;;;;;;;;;;17.50;76.40;;;;;;5012123;28;87122;-46
2023/06/05 11:02:53;;;;;;;;;;;17.50;76.40;;;;;;5010406;28;87386;-47
2023/06/05 11:05:19;;;;;;;;;;;17.50;76.40;;;;;;4998017;28;90203;-47
2023/06/05 11:07:45;;;;;;;;;;;17.50;76.40;;;;;;5011301;28;87030;-46
2023/06/05 11:10:20;;;;;;;;;;;17.50;76.30;;;;;;5012829;28;87355;-46
2023/06/05 11:12:46;;;;;;;;;;;17.50;76.20;;;;;;5010872;28;88092;-46
2023/06/05 11:15:12;;;;;;;;;;;17.50;76.90;;;;;;5014662;28;86284;-46
2023/06/05 11:17:37;;;;;;;;;;;17.60;76.20;;;;;;5014638;28;88199;-48
2023/06/05 11:20:09;;;;;;;;;;;17.60;76.20;;;;;;5014355;28;87123;-46
2023/06/05 11:22:53;;;;;;;;;;;17.60;76.30;;;;;;5015770;28;88135;-46
2023/06/05 11:25:21;;;;;;;;;;;17.60;76.30;;;;;;5015715;28;87195;-48
2023/06/05 11:27:48;;;;;;;;;;;17.70;76.10;;;;;;5013465;28;87073;-46
2023/06/05 11:30:14;;;;;;;;;;;17.70;76.20;;;;;;5015235;28;87537;-46
2023/06/05 11:32:40;;;;;;;;;;;17.70;76.00;;;;;;5015399;28;88313;-46
2023/06/05 11:35:05;;;;;;;;;;;17.70;76.10;;;;;;5013224;28;87371;-48
2023/06/05 11:37:34;;;;;;;;;;;17.70;76.00;;;;;;5018597;28;87664;-46
2023/06/05 11:40:08;;;;;;;;;;;17.70;76.20;;;;;;5014297;28;86401;-46
2023/06/05 11:42:34;;;;;;;;;;;17.70;76.10;;;;;;5014030;28;87301;-47
2023/06/05 11:45:00;;;;;;;;;;;17.70;76.20;;;;;;5013968;28;88220;-46
2023/06/05 11:47:29;;;;;;;;;;;17.70;76.20;;;;;;5015573;28;88128;-47
2023/06/05 11:50:11;;;;;;;;;;;17.80;76.10;;;;;;5014303;28;88629;-46
2023/06/05 11:52:37;;;;;;;;;;;17.80;76.00;;;;;;5012679;28;88207;-46
2023/06/05 11:55:13;;;;;;;;;;;17.90;76.10;;;;;;5014400;28;87272;-46
2023/06/05 11:57:39;;;;;;;;;;;17.90;76.10;;;;;;5013624;28;87415;-46
2023/06/05 12:00:06;;;;;;;;;;;17.90;76.10;;;;;;5016894;28;88289;-46
2023/06/05 12:02:32;;;;;;;;;;;17.90;76.00;;;;;;5015746;28;87554;-47
2023/06/05 12:04:57;;;;;;;;;;;17.90;76.00;;;;;;5013581;28;87337;-47
2023/06/05 12:07:31;;;;;;;;;;;17.90;76.10;;;;;;5016320;28;87145;-47
2023/06/05 12:09:58;;;;;;;;;;;17.90;76.10;;;;;;5013129;28;87479;-46
2023/06/05 12:12:23;;;;;;;;;;;18.00;76.10;;;;;;5013848;28;88977;-49
2023/06/05 12:14:49;;;;;;;;;;;18.00;76.10;;;;;;5014509;28;87179;-47
2023/06/05 12:17:15;;;;;;;;;;;18.00;76.10;;;;;;5012818;28;87332;-46
2023/06/05 12:19:40;;;;;;;;;;;18.00;76.10;;;;;;5014958;28;87930;-46
2023/06/05 12:22:06;;;;;;;;;;;18.00;76.20;;;;;;5017657;28;87129;-46
2023/06/05 12:24:33;;;;;;;;;;;18.10;76.00;;;;;;5015018;28;87234;-47
2023/06/05 12:27:03;;;;;;;;;;;18.10;76.00;;;;;;5012769;28;87073;-47
2023/06/05 12:29:30;;;;;;;;;;;18.10;75.90;;;;;;5013714;28;87348;-47
2023/06/05 12:31:57;;;;;;;;;;;18.10;75.90;;;;;;5015186;28;87098;-45
2023/06/05 12:34:42;;;;;;;;;;;18.20;76.00;;;;;;5013088;28;87067;-46
2023/06/05 12:37:08;;;;;;;;;;;18.20;75.90;;;;;;4993884;28;90423;-46
2023/06/05 12:39:33;;;;;;;;;;;18.20;76.40;;;;;;5013903;28;87984;-46
2023/06/05 12:41:59;;;;;;;;;;;18.20;75.80;;;;;;5012197;28;87234;-47
2023/06/05 12:44:25;;;;;;;;;;;18.20;75.90;;;;;;5017455;28;87680;-46
2023/06/05 12:46:50;;;;;;;;;;;18.20;75.90;;;;;;5013752;28;87970;-47
2023/06/05 12:49:16;;;;;;;;;;;18.30;75.90;;;;;;5012916;28;86996;-46
2023/06/05 12:51:42;;;;;;;;;;;18.30;76.20;;;;;;5015246;28;87043;-50
2023/06/05 12:54:07;;;;;;;;;;;18.30;76.20;;;;;;5013914;28;86480;-46
2023/06/05 12:56:35;;;;;;;;;;;18.30;76.20;;;;;;5013904;28;86977;-46
2023/06/05 12:59:00;;;;;;;;;;;18.30;76.10;;;;;;5011823;28;87995;-48
2023/06/05 13:01:28;;;;;;;;;;;18.30;76.10;;;;;;5013813;28;88097;-47
2023/06/05 13:03:54;;;;;;;;;;;18.30;76.20;;;;;;5014005;28;88353;-47
2023/06/05 13:06:20;;;;;;;;;;;18.30;76.30;;;;;;5014745;28;87948;-47
2023/06/05 13:08:46;;;;;;;;;;;18.30;76.20;;;;;;5013027;28;87515;-47
2023/06/05 13:11:12;;;;;;;;;;;18.30;76.40;;;;;;5013203;28;88173;-46
2023/06/05 13:13:38;;;;;;;;;;;18.30;76.40;;;;;;5011521;28;87124;-46
2023/06/05 13:16:06;;;;;;;;;;;18.40;76.30;;;;;;5011669;28;89081;-47
2023/06/05 13:18:32;;;;;;;;;;;18.40;76.30;;;;;;5013050;28;87193;-46
2023/06/05 13:20:58;;;;;;;;;;;18.40;76.10;;;;;;5014666;28;87205;-47
2023/06/05 13:23:24;;;;;;;;;;;18.40;76.00;;;;;;5012543;28;87087;-48
2023/06/05 13:25:50;;;;;;;;;;;18.50;76.10;;;;;;5014815;28;89037;-46
2023/06/05 13:28:16;;;;;;;;;;;18.50;76.10;;;;;;5012188;28;87402;-48
2023/06/05 13:30:42;;;;;;;;;;;18.50;76.00;;;;;;5014005;28;87367;-46
2023/06/05 13:33:07;;;;;;;;;;;18.50;76.10;;;;;;5012471;28;87113;-46
2023/06/05 13:35:33;;;;;;;;;;;18.50;76.00;;;;;;5012866;28;87443;-46
2023/06/05 13:37:58;;;;;;;;;;;18.50;76.10;;;;;;5015562;28;89272;-46
2023/06/05 13:40:26;;;;;;;;;;;18.50;76.10;;;;;;5011248;28;87226;-47
2023/06/05 13:42:53;;;;;;;;;;;18.60;76.00;;;;;;5012576;28;86540;-47
2023/06/05 13:45:18;;;;;;;;;;;18.60;76.70;;;;;;4995695;28;88591;-46
2023/06/05 13:47:44;;;;;;;;;;;18.60;76.10;;;;;;5014581;28;87119;-47
2023/06/05 13:50:10;;;;;;;;;;;18.60;76.00;;;;;;5011855;28;88840;-46
2023/06/05 13:52:36;;;;;;;;;;;18.60;76.00;;;;;;5013889;28;87186;-47
2023/06/05 13:55:02;;;;;;;;;;;18.60;76.00;;;;;;5013410;28;87392;-47
2023/06/05 13:57:27;;;;;;;;;;;18.60;75.90;;;;;;5011791;28;87150;-46
2023/06/05 13:59:55;;;;;;;;;;;18.60;76.00;;;;;;5012072;28;87037;-46
2023/06/05 14:02:21;;;;;;;;;;;18.60;76.00;;;;;;5013822;28;87717;-46
2023/06/05 14:04:46;;;;;;;;;;;18.60;76.00;;;;;;5011677;28;87552;-47
2023/06/05 14:07:12;;;;;;;;;;;18.70;76.00;;;;;;5012501;28;86415;-47
2023/06/05 14:09:37;;;;;;;;;;;18.70;76.00;;;;;;4997621;28;89658;-48
2023/06/05 14:12:03;;;;;;;;;;;18.70;76.00;;;;;;5013592;28;87231;-47
2023/06/05 14:14:29;;;;;;;;;;;18.70;76.10;;;;;;5011720;28;87979;-46